LYBE/BEG METAR and TAF weather

Enter ICAO airport designator
Example: see airport list
Station Type Date Time Source
LYBE METAR 2016/08/25 02:30 UTC NOAA

LYBE 250230Z 31004KT CAVOK 16/15 Q1020 NOSIG


Station Type Date Time Source
LYBE Decoded METAR 2016/08/25 02:30 UTC NOAA

Beograd / Surcin, Serbia and Montenegro (LYBE) 44-49N 020-17E 99M
Aug 24, 2016 - 10:30 PM EDT / 2016.08.25 0230 UTC
Wind: from the NW (310 degrees) at 5 MPH (4 KT):0
Visibility: greater than 7 mile(s):0
Temperature: 60 F (16 C)
Dew Point: 59 F (15 C)
Relative Humidity: 93%
Pressure (altimeter): 30.12 in. Hg (1020 hPa)
ob: LYBE 250230Z 31004KT CAVOK 16/15 Q1020 NOSIG
cycle: 2

Station Type Date Time Source
LYBE TAF 2016/08/24 18:21 UTC NOAA

TAF LYBE 241700Z 2418/2518 29008KT CAVOK TX28/2512Z TN18/2504Z
TEMPO 2502/2505 5000 BR